createdAt,value
2023-05-22T00:00:05.446Z,15.6
2023-05-22T00:03:07.459Z,15.1
2023-05-22T00:06:09.383Z,17.1
2023-05-22T00:09:11.358Z,13
2023-05-22T00:12:13.327Z,16.8
2023-05-22T00:15:15.283Z,13.7
2023-05-22T00:18:17.253Z,13.2
2023-05-22T00:21:19.193Z,16.5
2023-05-22T00:24:21.148Z,14.4
2023-05-22T00:27:23.122Z,14.6
2023-05-22T00:30:25.079Z,13.2
2023-05-22T00:33:27.036Z,13.7
2023-05-22T00:36:29.004Z,13.8
2023-05-22T00:39:30.953Z,14.9
2023-05-22T00:42:32.917Z,13.7
2023-05-22T00:45:34.868Z,15.5
2023-05-22T00:48:36.824Z,15.2
2023-05-22T00:51:38.800Z,14.8
2023-05-22T00:54:40.786Z,17.8
2023-05-22T00:57:42.742Z,16.8
2023-05-22T01:00:44.742Z,16.5
2023-05-22T01:03:46.836Z,19.1
2023-05-22T01:06:48.694Z,18
2023-05-22T01:09:50.573Z,17.4
2023-05-22T01:12:52.527Z,16.5
2023-05-22T01:15:54.505Z,15.9
2023-05-22T01:18:56.468Z,14.7
2023-05-22T01:21:58.417Z,16.8
2023-05-22T01:25:00.386Z,16
2023-05-22T01:28:02.336Z,17.6
2023-05-22T01:31:04.296Z,15.3
2023-05-22T01:34:06.418Z,17.6
2023-05-22T01:37:08.221Z,14.2
2023-05-22T01:40:10.243Z,14.8
2023-05-22T01:43:12.181Z,16.7
2023-05-22T01:46:14.208Z,17.6
2023-05-22T01:49:16.120Z,14.3
2023-05-22T01:52:18.081Z,17.7
2023-05-22T01:55:20.030Z,15.6
2023-05-22T01:58:22.047Z,17.9
2023-05-22T02:01:23.987Z,14
2023-05-22T02:04:25.922Z,15.2
2023-05-22T02:07:27.883Z,18.4
2023-05-22T02:10:29.868Z,15.2
2023-05-22T02:13:31.852Z,17.8
2023-05-22T02:16:33.819Z,13.7
2023-05-22T02:19:35.761Z,16.6
2023-05-22T02:22:37.698Z,13.9
2023-05-22T02:25:39.661Z,16.2
2023-05-22T02:28:41.630Z,14.2
2023-05-22T02:31:43.629Z,16.4
2023-05-22T02:34:45.583Z,18.4
2023-05-22T02:37:47.495Z,18.6
2023-05-22T02:40:49.447Z,14.8
2023-05-22T02:43:51.393Z,16.4
2023-05-22T02:46:53.426Z,15.4
2023-05-22T02:49:55.320Z,14.4
2023-05-22T02:52:57.283Z,15.3
2023-05-22T02:55:59.242Z,14
2023-05-22T02:59:01.199Z,13.5
2023-05-22T03:02:03.186Z,14.8
2023-05-22T03:05:05.107Z,14.2
2023-05-22T03:08:07.073Z,14.2
2023-05-22T03:11:09.067Z,16.4
2023-05-22T03:14:10.994Z,14
2023-05-22T03:17:12.958Z,13.7
2023-05-22T03:20:14.906Z,14.3
2023-05-22T03:23:16.882Z,14.7
2023-05-22T03:26:18.860Z,17.4
2023-05-22T03:29:20.863Z,14.5
2023-05-22T03:32:22.789Z,15.6
2023-05-22T03:35:24.761Z,17.2
2023-05-22T03:38:26.704Z,16.4
2023-05-22T03:41:28.658Z,14.4
2023-05-22T03:44:30.618Z,16.5
2023-05-22T03:47:32.681Z,17.5
2023-05-22T03:50:34.549Z,14.7
2023-05-22T03:53:36.487Z,17.1
2023-05-22T03:56:38.471Z,17.4
2023-05-22T03:59:40.427Z,14.5
2023-05-22T04:02:42.482Z,15.8
2023-05-22T04:05:44.341Z,14.7
2023-05-22T04:08:46.287Z,14.6
2023-05-22T04:11:48.262Z,13.6
2023-05-22T04:14:50.233Z,15
2023-05-22T04:17:52.294Z,17
2023-05-22T04:20:54.146Z,13.5
2023-05-22T04:23:56.103Z,14.3
2023-05-22T04:26:58.079Z,13.5
2023-05-22T04:30:00.053Z,12.5
2023-05-22T04:33:02.061Z,12.2
2023-05-22T04:36:04.004Z,13.7
2023-05-22T04:39:05.949Z,16
2023-05-22T04:42:07.914Z,14.3
2023-05-22T04:45:09.877Z,16.2
2023-05-22T04:48:11.868Z,14.6
2023-05-22T04:51:13.842Z,13.1
2023-05-22T04:54:15.780Z,12.6
2023-05-22T04:57:17.725Z,12.4
2023-05-22T05:00:19.712Z,12.5
2023-05-22T05:03:21.709Z,12.7
2023-05-22T05:06:23.627Z,13.3
2023-05-22T05:09:25.608Z,12.2
2023-05-22T05:12:27.574Z,15.7
2023-05-22T05:15:29.586Z,13.6
2023-05-22T05:18:31.490Z,11
2023-05-22T05:21:33.459Z,11.2
2023-05-22T05:24:35.418Z,12.5
2023-05-22T05:27:37.404Z,13.9
2023-05-22T05:30:39.573Z,11.8
2023-05-22T05:33:41.350Z,13
2023-05-22T05:36:43.308Z,14.4
2023-05-22T05:39:45.274Z,11.5
2023-05-22T05:42:47.218Z,12.8
2023-05-22T05:45:49.263Z,14.4
2023-05-22T05:48:51.197Z,11.7
2023-05-22T05:51:53.148Z,10.4
2023-05-22T05:54:55.101Z,12.4
2023-05-22T05:57:57.065Z,13.2
2023-05-22T06:00:59.058Z,11.4
2023-05-22T06:04:01.096Z,13.5
2023-05-22T06:07:02.936Z,11.1
2023-05-22T06:10:04.963Z,14.4
2023-05-22T06:13:06.885Z,11.3
2023-05-22T06:16:08.854Z,15.6
2023-05-22T06:19:10.836Z,12.2
2023-05-22T06:22:12.796Z,12.5
2023-05-22T06:25:14.851Z,13
2023-05-22T06:28:16.725Z,12.6
2023-05-22T06:31:18.709Z,12.3
2023-05-22T06:34:20.847Z,12.2
2023-05-22T06:37:22.792Z,14
2023-05-22T06:40:24.628Z,13.8
2023-05-22T06:43:26.611Z,13.7
2023-05-22T06:46:28.597Z,12.3
2023-05-22T06:49:30.538Z,12.7
2023-05-22T06:52:32.502Z,13.2
2023-05-22T06:55:34.482Z,13.4
2023-05-22T06:58:36.454Z,13.2
2023-05-22T07:01:38.438Z,12.3
2023-05-22T07:04:40.358Z,14.1
2023-05-22T07:07:42.370Z,12.7
2023-05-22T07:10:44.281Z,14.3
2023-05-22T07:13:46.264Z,10.9
2023-05-22T07:16:48.241Z,10.7
2023-05-22T07:19:50.167Z,12.4
2023-05-22T07:22:52.171Z,11.9
2023-05-22T07:25:54.130Z,11.3
2023-05-22T07:28:56.099Z,12.8
2023-05-22T07:31:58.124Z,12
2023-05-22T07:35:00.040Z,10.8
2023-05-22T07:38:01.972Z,11.5
2023-05-22T07:41:03.956Z,11.5
2023-05-22T07:44:05.908Z,9.2
2023-05-22T07:47:07.860Z,8.7
2023-05-22T07:50:09.852Z,16.3
2023-05-22T07:53:11.795Z,12
2023-05-22T07:56:13.758Z,13.6
2023-05-22T07:59:15.707Z,13.7
2023-05-22T08:02:17.737Z,10.2
2023-05-22T08:05:19.704Z,12.8
2023-05-22T08:08:21.613Z,10.9
2023-05-22T08:11:23.558Z,11.1
2023-05-22T08:14:25.510Z,12
2023-05-22T08:17:27.525Z,12.5
2023-05-22T08:20:29.485Z,10.1
2023-05-22T08:23:31.394Z,12
2023-05-22T08:26:33.464Z,12.8
2023-05-22T08:29:35.311Z,12.4
2023-05-22T08:32:37.382Z,9.8
2023-05-22T08:35:39.297Z,12.4
2023-05-22T08:38:41.200Z,12
2023-05-22T08:41:43.161Z,12.1
2023-05-22T08:44:45.125Z,10.4
2023-05-22T08:47:47.129Z,12.6
2023-05-22T08:50:49.038Z,12.6
2023-05-22T08:53:50.969Z,10.7
2023-05-22T08:56:56.537Z,13.1
2023-05-22T08:59:54.924Z,10
2023-05-22T09:02:56.941Z,12.5
2023-05-22T09:05:58.816Z,14.5
2023-05-22T09:09:00.807Z,12.9
2023-05-22T09:12:02.773Z,10.2
2023-05-22T09:15:04.717Z,11.1
2023-05-22T09:18:06.805Z,10.9
2023-05-22T09:21:18.105Z,11.8
2023-05-22T09:24:10.628Z,9.7
2023-05-22T09:27:12.613Z,12.6
2023-05-22T09:30:14.536Z,10.2
2023-05-22T09:33:16.522Z,13.9
2023-05-22T09:36:18.475Z,11.1
2023-05-22T09:39:20.452Z,10.2
2023-05-22T09:42:22.432Z,9.3
2023-05-22T09:45:24.399Z,8.6
2023-05-22T09:48:26.348Z,9.4
2023-05-22T09:51:28.322Z,12.4
2023-05-22T09:54:30.295Z,9.4
2023-05-22T09:57:32.305Z,10.4
2023-05-22T10:00:34.269Z,9.7
2023-05-22T10:03:36.239Z,13.9
2023-05-22T10:06:38.194Z,10.8
2023-05-22T10:09:40.169Z,10.7
2023-05-22T10:12:42.131Z,11.8
2023-05-22T10:15:44.105Z,10.1
2023-05-22T10:18:46.134Z,9.7
2023-05-22T10:21:48.014Z,13.3
2023-05-22T10:24:49.986Z,11.4
2023-05-22T10:27:52.184Z,10.6
2023-05-22T10:30:53.927Z,11.3
2023-05-22T10:33:55.912Z,9.7
2023-05-22T10:37:03.124Z,10.4
2023-05-22T10:39:59.820Z,8.5
2023-05-22T10:43:01.806Z,7.6
2023-05-22T10:46:03.788Z,12.4
2023-05-22T10:49:05.703Z,10.2
2023-05-22T10:52:07.689Z,9.8
2023-05-22T10:55:09.689Z,9.6
2023-05-22T10:58:11.622Z,10.3
2023-05-22T11:01:13.681Z,9.5
2023-05-22T11:04:15.585Z,11
2023-05-22T11:07:17.522Z,8.6
2023-05-22T11:10:19.486Z,9.7
2023-05-22T11:13:21.443Z,10.4
2023-05-22T11:16:23.451Z,10.3
2023-05-22T11:19:25.447Z,10.5
2023-05-22T11:22:27.402Z,9.6
2023-05-22T11:25:29.325Z,10
2023-05-22T11:28:31.348Z,10.5
2023-05-22T11:31:33.445Z,12.6
2023-05-22T11:34:35.268Z,8.1
2023-05-22T11:37:37.264Z,9.8
2023-05-22T11:40:39.403Z,11.2
2023-05-22T11:43:41.175Z,10.6
2023-05-22T11:46:43.205Z,8.8
2023-05-22T11:49:45.140Z,9.2
2023-05-22T11:52:47.045Z,11.1
2023-05-22T11:55:49.032Z,9.3
2023-05-22T11:58:51.008Z,8
2023-05-22T12:01:52.974Z,9.3
2023-05-22T12:04:54.916Z,9.7
2023-05-22T12:07:56.880Z,9.1
2023-05-22T12:10:58.831Z,8.5
2023-05-22T12:14:00.831Z,10.8
2023-05-22T12:17:02.807Z,9.7
2023-05-22T12:20:04.737Z,10.6
2023-05-22T12:23:06.760Z,9.4
2023-05-22T12:26:08.623Z,11.3
2023-05-22T12:29:10.633Z,9.4
2023-05-22T12:32:12.653Z,8.5
2023-05-22T12:35:14.541Z,10
2023-05-22T12:38:16.491Z,9.3
2023-05-22T12:41:18.473Z,8.3
2023-05-22T12:44:20.391Z,8.5
2023-05-22T12:47:22.522Z,11.6
2023-05-22T12:50:24.409Z,12.9
2023-05-22T12:53:26.333Z,9.2
2023-05-22T12:56:28.261Z,9.6
2023-05-22T12:59:30.240Z,9.9
2023-05-22T13:02:32.210Z,7.7
2023-05-22T13:05:34.159Z,9.4
2023-05-22T13:08:36.129Z,12.4
2023-05-22T13:11:38.153Z,8.5
2023-05-22T13:14:40.014Z,8.1
2023-05-22T13:17:42.037Z,8.5
2023-05-22T13:20:43.925Z,8
2023-05-22T13:23:45.900Z,9.2
2023-05-22T13:26:47.860Z,9.9
2023-05-22T13:29:49.870Z,9.2
2023-05-22T13:32:51.840Z,10.8
2023-05-22T13:35:53.739Z,8.6
2023-05-22T13:38:55.714Z,7.1
2023-05-22T13:41:57.706Z,9
2023-05-22T13:44:59.661Z,7.7
2023-05-22T13:48:01.643Z,8.1
2023-05-22T13:51:03.591Z,9.2
2023-05-22T13:54:05.547Z,6.7
2023-05-22T13:57:07.640Z,7
2023-05-22T14:00:09.520Z,9
2023-05-22T14:03:11.597Z,6.7
2023-05-22T14:06:13.466Z,7.1
2023-05-22T14:09:15.418Z,7
2023-05-22T14:12:17.378Z,6.7
2023-05-22T14:15:19.332Z,7.9
2023-05-22T14:18:21.340Z,8.1
2023-05-22T14:21:23.283Z,6.4
2023-05-22T14:24:25.235Z,6.3
2023-05-22T14:27:27.243Z,6.9
2023-05-22T14:30:29.175Z,7.9
2023-05-22T14:33:31.206Z,7.1
2023-05-22T14:36:33.183Z,9.6
2023-05-22T14:39:38.216Z,11.5
2023-05-22T14:42:40.164Z,7.5
2023-05-22T14:45:42.468Z,7.8
2023-05-22T14:48:44.090Z,7
2023-05-22T14:51:46.073Z,7.3
2023-05-22T14:54:48.046Z,7.2
2023-05-22T14:57:50.077Z,9.1
2023-05-22T15:00:51.959Z,8.5
2023-05-22T15:03:53.961Z,7.9
2023-05-22T15:06:58.705Z,9.2
2023-05-22T15:10:00.684Z,7.9
2023-05-22T15:13:02.647Z,9
2023-05-22T15:16:04.625Z,8.1
2023-05-22T15:19:06.639Z,7.3
2023-05-22T15:22:19.087Z,6.5
2023-05-22T15:25:10.527Z,6.9
2023-05-22T15:28:12.480Z,6.4
2023-05-22T15:31:14.430Z,5.5
2023-05-22T15:34:16.459Z,6.1
2023-05-22T15:37:18.369Z,5.8
2023-05-22T15:40:20.322Z,6.5
2023-05-22T15:43:23.380Z,4.5
2023-05-22T15:46:24.297Z,6.4
2023-05-22T15:49:27.441Z,7
2023-05-22T15:52:28.216Z,5.6
2023-05-22T15:55:30.186Z,5.4
2023-05-22T15:58:32.151Z,4.5
2023-05-22T16:01:34.176Z,5.3
2023-05-22T16:04:39.104Z,5.9
2023-05-22T16:07:41.063Z,4.6
2023-05-22T16:10:43.032Z,4.7
2023-05-22T16:13:44.971Z,6.3
2023-05-22T16:16:46.919Z,6.2
2023-05-22T16:19:48.893Z,6.1
2023-05-22T16:22:50.846Z,6.1
2023-05-22T16:25:52.797Z,9.6
2023-05-22T16:28:54.763Z,7.4
2023-05-22T16:31:56.832Z,8.6
2023-05-22T16:34:58.695Z,8.4
2023-05-22T16:38:00.648Z,8.4
2023-05-22T16:41:02.617Z,7.8
2023-05-22T16:44:04.605Z,8.6
2023-05-22T16:47:08.526Z,5.8
2023-05-22T16:50:08.540Z,8
2023-05-22T16:53:10.513Z,8.3
2023-05-22T16:56:12.506Z,7.9
2023-05-22T16:59:14.461Z,8.9
2023-05-22T17:02:16.456Z,10.4
2023-05-22T17:05:18.410Z,6.9
2023-05-22T17:08:20.356Z,8.4
2023-05-22T17:11:22.305Z,8
2023-05-22T17:14:24.264Z,7.6
2023-05-22T17:17:26.298Z,8.1
2023-05-22T17:20:28.181Z,7.4
2023-05-22T17:23:30.126Z,8.9
2023-05-22T17:26:32.106Z,6.8
2023-05-22T17:29:34.061Z,6.4
2023-05-22T17:32:36.062Z,7.8
2023-05-22T17:35:37.968Z,6.6
2023-05-22T17:38:39.979Z,5.8
2023-05-22T17:41:41.928Z,7.9
2023-05-22T17:44:43.897Z,8
2023-05-22T17:47:45.891Z,9.8
2023-05-22T17:50:47.833Z,8.6
2023-05-22T17:53:49.788Z,10.6
2023-05-22T17:56:51.756Z,8.8
2023-05-22T17:59:53.720Z,13.6
2023-05-22T18:02:56.121Z,11.6
2023-05-22T18:05:57.654Z,10.8
2023-05-22T18:08:59.569Z,11.7
2023-05-22T18:12:01.520Z,11.2
2023-05-22T18:15:03.485Z,13.2
2023-05-22T18:18:05.493Z,10.9
2023-05-22T18:21:07.417Z,9.4
2023-05-22T18:24:09.386Z,11.7
2023-05-22T18:27:11.365Z,11.1
2023-05-22T18:30:13.345Z,10.2
2023-05-22T18:33:15.338Z,12.7
2023-05-22T18:36:17.259Z,11.2
2023-05-22T18:39:19.214Z,11.2
2023-05-22T18:42:21.186Z,9.5
2023-05-22T18:45:23.154Z,11.6
2023-05-22T18:48:25.126Z,11.5
2023-05-22T18:51:27.068Z,9.5
2023-05-22T18:54:29.070Z,8.6
2023-05-22T18:57:31.043Z,10.2
2023-05-22T19:00:32.999Z,9.8
2023-05-22T19:03:34.963Z,10.4
2023-05-22T19:06:36.921Z,9.9
2023-05-22T19:09:38.889Z,9.5
2023-05-22T19:12:40.847Z,9.3
2023-05-22T19:15:42.892Z,9.7
2023-05-22T19:18:44.807Z,10.4
2023-05-22T19:21:46.770Z,8.7
2023-05-22T19:24:48.784Z,9.4
2023-05-22T19:27:50.699Z,10.2
2023-05-22T19:30:52.777Z,9.2
2023-05-22T19:33:54.635Z,8.5
2023-05-22T19:36:56.591Z,7.3
2023-05-22T19:39:58.538Z,12.3
2023-05-22T19:43:00.505Z,10.2
2023-05-22T19:46:02.495Z,7.9
2023-05-22T19:49:04.418Z,7.1
2023-05-22T19:52:06.366Z,7.4
2023-05-22T19:55:08.322Z,8.2
2023-05-22T19:58:10.275Z,6.9
2023-05-22T20:01:12.310Z,6.7
2023-05-22T20:04:14.288Z,6.9
2023-05-22T20:07:16.152Z,7.2
2023-05-22T20:10:18.131Z,6.5
2023-05-22T20:13:20.115Z,6
2023-05-22T20:16:22.066Z,6.4
2023-05-22T20:19:24.131Z,7.1
2023-05-22T20:22:25.984Z,7.8
2023-05-22T20:25:27.945Z,8.5
2023-05-22T20:28:29.920Z,7.1
2023-05-22T20:31:31.891Z,7
2023-05-22T20:34:33.867Z,11.6
2023-05-22T20:37:35.873Z,8.1
2023-05-22T20:40:37.764Z,9.5
2023-05-22T20:43:39.709Z,7.5
2023-05-22T20:46:41.658Z,8
2023-05-22T20:49:43.635Z,7.5
2023-05-22T20:52:45.559Z,9.4
2023-05-22T20:55:47.552Z,7.4
2023-05-22T20:58:49.510Z,9.6
2023-05-22T21:01:51.458Z,8.7
2023-05-22T21:04:53.418Z,7.9
2023-05-22T21:07:55.383Z,12.3
2023-05-22T21:10:57.349Z,14.6
2023-05-22T21:13:59.316Z,13.6
2023-05-22T21:17:01.319Z,16.5
2023-05-22T21:20:03.270Z,19.5
2023-05-22T21:23:05.217Z,18.4
2023-05-22T21:26:07.161Z,23.6
2023-05-22T21:29:09.126Z,19.7
2023-05-22T21:32:11.107Z,18.6
2023-05-22T21:35:13.073Z,24.8
2023-05-22T21:38:15.024Z,23.1
2023-05-22T21:41:16.996Z,23.1
2023-05-22T21:44:18.971Z,26.1
2023-05-22T21:47:20.948Z,35.3
2023-05-22T21:50:22.911Z,39.1
2023-05-22T21:53:24.860Z,38.8
2023-05-22T21:56:26.814Z,35.9
2023-05-22T21:59:28.812Z,39.4
2023-05-22T22:02:30.794Z,38.5
2023-05-22T22:05:32.728Z,49.5
2023-05-22T22:08:34.697Z,43.1
2023-05-22T22:11:36.674Z,46.6
2023-05-22T22:14:38.631Z,44.4
2023-05-22T22:17:40.768Z,36.2
2023-05-22T22:20:44.683Z,57.8
2023-05-22T22:23:44.531Z,45.3
2023-05-22T22:26:46.470Z,49.8
2023-05-22T22:29:48.440Z,49.6
2023-05-22T22:32:50.406Z,48.9
2023-05-22T22:35:52.366Z,47.1
2023-05-22T22:38:54.347Z,41.2
2023-05-22T22:41:56.481Z,44.2
2023-05-22T22:44:58.284Z,39.3
2023-05-22T22:48:00.399Z,42
2023-05-22T22:51:02.210Z,33.2
2023-05-22T22:54:04.176Z,31.4
2023-05-22T22:57:06.107Z,39.8
2023-05-22T23:00:08.099Z,36.5
2023-05-22T23:03:10.055Z,29.3
2023-05-22T23:06:12.007Z,29
2023-05-22T23:09:13.973Z,38.8
2023-05-22T23:12:16.262Z,32.8
2023-05-22T23:15:17.913Z,33.5
2023-05-22T23:18:19.931Z,28.2
2023-05-22T23:21:21.821Z,34.6
2023-05-22T23:24:23.800Z,36.7
2023-05-22T23:27:25.854Z,31.2
2023-05-22T23:30:27.753Z,25.7
2023-05-22T23:33:29.759Z,33.3
2023-05-22T23:36:31.702Z,39.4
2023-05-22T23:39:33.660Z,35.4
2023-05-22T23:42:35.615Z,26.5
2023-05-22T23:45:37.561Z,28.4
2023-05-22T23:48:39.520Z,27.1
2023-05-22T23:51:41.471Z,27.6
2023-05-22T23:54:43.437Z,34
2023-05-22T23:57:45.404Z,34.8
